sensor_id;sensor_type;location;lat;lon;timestamp;temperature;humidity
27376;DHT22;14844;51.302;6.354;2023-04-03T00:01:03;0.60;99.90
27376;DHT22;14844;51.302;6.354;2023-04-03T00:03:28;0.70;99.90
27376;DHT22;14844;51.302;6.354;2023-04-03T00:05:54;0.80;99.90
27376;DHT22;14844;51.302;6.354;2023-04-03T00:08:20;0.80;99.90
27376;DHT22;14844;51.302;6.354;2023-04-03T00:10:45;0.80;99.90
27376;DHT22;14844;51.302;6.354;2023-04-03T00:13:11;0.80;99.90
27376;DHT22;14844;51.302;6.354;2023-04-03T00:15:37;0.80;99.90
27376;DHT22;14844;51.302;6.354;2023-04-03T00:18:03;0.80;99.90
27376;DHT22;14844;51.302;6.354;2023-04-03T00:20:28;0.70;99.90
27376;DHT22;14844;51.302;6.354;2023-04-03T00:22:54;0.70;99.90
27376;DHT22;14844;51.302;6.354;2023-04-03T00:25:19;0.70;99.90
27376;DHT22;14844;51.302;6.354;2023-04-03T00:27:45;0.70;99.90
27376;DHT22;14844;51.302;6.354;2023-04-03T00:30:11;0.60;99.90
27376;DHT22;14844;51.302;6.354;2023-04-03T00:32:38;0.60;99.90
27376;DHT22;14844;51.302;6.354;2023-04-03T00:35:04;0.70;99.90
27376;DHT22;14844;51.302;6.354;2023-04-03T00:37:29;0.70;99.90
27376;DHT22;14844;51.302;6.354;2023-04-03T00:39:55;0.70;99.90
27376;DHT22;14844;51.302;6.354;2023-04-03T00:42:21;0.80;99.90
27376;DHT22;14844;51.302;6.354;2023-04-03T00:47:13;0.70;99.90
27376;DHT22;14844;51.302;6.354;2023-04-03T00:49:40;0.50;99.90
27376;DHT22;14844;51.302;6.354;2023-04-03T00:52:07;0.40;99.90
27376;DHT22;14844;51.302;6.354;2023-04-03T00:54:35;0.50;99.90
27376;DHT22;14844;51.302;6.354;2023-04-03T00:57:01;0.50;99.90
27376;DHT22;14844;51.302;6.354;2023-04-03T00:59:29;0.50;99.90
27376;DHT22;14844;51.302;6.354;2023-04-03T01:01:55;0.40;99.90
27376;DHT22;14844;51.302;6.354;2023-04-03T01:04:40;0.40;99.90
27376;DHT22;14844;51.302;6.354;2023-04-03T01:09:31;0.40;99.90
27376;DHT22;14844;51.302;6.354;2023-04-03T01:14:43;0.30;99.90
27376;DHT22;14844;51.302;6.354;2023-04-03T01:20:00;0.30;99.90
27376;DHT22;14844;51.302;6.354;2023-04-03T01:22:33;0.30;99.90
27376;DHT22;14844;51.302;6.354;2023-04-03T01:25:02;0.30;99.90
27376;DHT22;14844;51.302;6.354;2023-04-03T01:27:28;0.30;99.90
27376;DHT22;14844;51.302;6.354;2023-04-03T01:29:53;0.30;99.90
27376;DHT22;14844;51.302;6.354;2023-04-03T01:32:19;0.40;99.90
27376;DHT22;14844;51.302;6.354;2023-04-03T01:34:45;0.50;99.90
27376;DHT22;14844;51.302;6.354;2023-04-03T01:37:10;0.50;99.90
27376;DHT22;14844;51.302;6.354;2023-04-03T01:39:36;0.50;99.90
27376;DHT22;14844;51.302;6.354;2023-04-03T01:42:01;0.40;99.90
27376;DHT22;14844;51.302;6.354;2023-04-03T01:44:26;0.40;99.90
27376;DHT22;14844;51.302;6.354;2023-04-03T01:46:52;0.30;99.90
27376;DHT22;14844;51.302;6.354;2023-04-03T01:49:17;0.30;99.90
27376;DHT22;14844;51.302;6.354;2023-04-03T01:51:43;0.30;99.90
27376;DHT22;14844;51.302;6.354;2023-04-03T01:54:08;0.30;99.90
27376;DHT22;14844;51.302;6.354;2023-04-03T01:56:34;0.20;99.90
27376;DHT22;14844;51.302;6.354;2023-04-03T01:58:59;0.20;99.90
27376;DHT22;14844;51.302;6.354;2023-04-03T02:01:25;0.20;99.90
27376;DHT22;14844;51.302;6.354;2023-04-03T02:03:51;0.20;99.90
27376;DHT22;14844;51.302;6.354;2023-04-03T02:06:16;0.10;99.90
27376;DHT22;14844;51.302;6.354;2023-04-03T02:08:42;0.10;99.90
27376;DHT22;14844;51.302;6.354;2023-04-03T02:11:07;0.10;99.90
27376;DHT22;14844;51.302;6.354;2023-04-03T02:13:32;0.10;99.90
27376;DHT22;14844;51.302;6.354;2023-04-03T02:15:58;0.00;99.90
27376;DHT22;14844;51.302;6.354;2023-04-03T02:18:24;0.00;99.90
27376;DHT22;14844;51.302;6.354;2023-04-03T02:20:49;0.00;99.90
27376;DHT22;14844;51.302;6.354;2023-04-03T02:23:15;-0.10;99.90
27376;DHT22;14844;51.302;6.354;2023-04-03T02:25:40;-0.10;99.90
27376;DHT22;14844;51.302;6.354;2023-04-03T02:28:06;-0.10;99.90
27376;DHT22;14844;51.302;6.354;2023-04-03T02:30:31;-0.10;99.90
27376;DHT22;14844;51.302;6.354;2023-04-03T02:32:57;0.10;99.90
27376;DHT22;14844;51.302;6.354;2023-04-03T02:35:22;0.10;99.90
27376;DHT22;14844;51.302;6.354;2023-04-03T02:37:48;0.10;99.90
27376;DHT22;14844;51.302;6.354;2023-04-03T02:40:13;0.20;99.90
27376;DHT22;14844;51.302;6.354;2023-04-03T02:42:39;0.20;99.90
27376;DHT22;14844;51.302;6.354;2023-04-03T02:45:04;0.30;99.90
27376;DHT22;14844;51.302;6.354;2023-04-03T02:47:30;0.40;99.90
27376;DHT22;14844;51.302;6.354;2023-04-03T02:49:56;0.40;99.90
27376;DHT22;14844;51.302;6.354;2023-04-03T02:52:21;0.50;99.90
27376;DHT22;14844;51.302;6.354;2023-04-03T02:54:47;0.60;99.90
27376;DHT22;14844;51.302;6.354;2023-04-03T02:57:12;0.70;99.90
27376;DHT22;14844;51.302;6.354;2023-04-03T02:59:38;0.90;99.90
27376;DHT22;14844;51.302;6.354;2023-04-03T03:02:07;1.00;99.90
27376;DHT22;14844;51.302;6.354;2023-04-03T03:04:33;1.00;99.90
27376;DHT22;14844;51.302;6.354;2023-04-03T03:06:58;1.00;99.90
27376;DHT22;14844;51.302;6.354;2023-04-03T03:09:23;1.20;99.90
27376;DHT22;14844;51.302;6.354;2023-04-03T03:11:50;1.20;99.90
27376;DHT22;14844;51.302;6.354;2023-04-03T03:14:16;1.10;99.90
27376;DHT22;14844;51.302;6.354;2023-04-03T03:16:41;1.20;99.90
27376;DHT22;14844;51.302;6.354;2023-04-03T03:19:07;1.20;99.90
27376;DHT22;14844;51.302;6.354;2023-04-03T03:21:32;1.20;99.90
27376;DHT22;14844;51.302;6.354;2023-04-03T03:23:58;1.20;99.90
27376;DHT22;14844;51.302;6.354;2023-04-03T03:26:23;1.10;99.90
27376;DHT22;14844;51.302;6.354;2023-04-03T03:28:49;1.10;99.90
27376;DHT22;14844;51.302;6.354;2023-04-03T03:31:14;1.10;99.90
27376;DHT22;14844;51.302;6.354;2023-04-03T03:33:40;1.10;99.90
27376;DHT22;14844;51.302;6.354;2023-04-03T03:36:06;1.10;99.90
27376;DHT22;14844;51.302;6.354;2023-04-03T03:38:32;1.00;99.90
27376;DHT22;14844;51.302;6.354;2023-04-03T03:40:57;1.00;99.90
27376;DHT22;14844;51.302;6.354;2023-04-03T03:43:23;1.00;99.90
27376;DHT22;14844;51.302;6.354;2023-04-03T03:45:51;1.00;99.90
27376;DHT22;14844;51.302;6.354;2023-04-03T03:48:18;1.00;99.90
27376;DHT22;14844;51.302;6.354;2023-04-03T03:50:43;0.90;99.90
27376;DHT22;14844;51.302;6.354;2023-04-03T03:53:09;0.90;99.90
27376;DHT22;14844;51.302;6.354;2023-04-03T03:55:35;0.90;99.90
27376;DHT22;14844;51.302;6.354;2023-04-03T03:58:00;1.00;99.90
27376;DHT22;14844;51.302;6.354;2023-04-03T04:00:26;1.00;99.90
27376;DHT22;14844;51.302;6.354;2023-04-03T04:02:52;1.00;99.90
27376;DHT22;14844;51.302;6.354;2023-04-03T04:05:17;0.90;99.90
27376;DHT22;14844;51.302;6.354;2023-04-03T04:07:43;0.90;99.90
27376;DHT22;14844;51.302;6.354;2023-04-03T04:10:08;0.90;99.90
27376;DHT22;14844;51.302;6.354;2023-04-03T04:12:34;1.00;99.90
27376;DHT22;14844;51.302;6.354;2023-04-03T04:15:01;0.90;99.90
27376;DHT22;14844;51.302;6.354;2023-04-03T04:17:26;1.00;99.90
27376;DHT22;14844;51.302;6.354;2023-04-03T04:19:51;1.00;99.90
27376;DHT22;14844;51.302;6.354;2023-04-03T04:22:17;1.00;99.90
27376;DHT22;14844;51.302;6.354;2023-04-03T04:24:42;1.00;99.90
27376;DHT22;14844;51.302;6.354;2023-04-03T04:27:08;1.00;99.90
27376;DHT22;14844;51.302;6.354;2023-04-03T04:29:34;1.00;99.90
27376;DHT22;14844;51.302;6.354;2023-04-03T04:32:02;1.00;99.90
27376;DHT22;14844;51.302;6.354;2023-04-03T04:34:28;1.00;99.90
27376;DHT22;14844;51.302;6.354;2023-04-03T04:36:53;1.10;99.90
27376;DHT22;14844;51.302;6.354;2023-04-03T04:39:18;1.00;99.90
27376;DHT22;14844;51.302;6.354;2023-04-03T04:41:44;1.00;99.90
27376;DHT22;14844;51.302;6.354;2023-04-03T04:44:09;1.00;99.90
27376;DHT22;14844;51.302;6.354;2023-04-03T04:46:35;0.90;99.90
27376;DHT22;14844;51.302;6.354;2023-04-03T04:49:00;0.90;99.90
27376;DHT22;14844;51.302;6.354;2023-04-03T04:51:26;0.80;99.90
27376;DHT22;14844;51.302;6.354;2023-04-03T04:53:51;0.80;99.90
27376;DHT22;14844;51.302;6.354;2023-04-03T04:56:17;0.80;99.90
27376;DHT22;14844;51.302;6.354;2023-04-03T04:58:42;0.80;99.90
27376;DHT22;14844;51.302;6.354;2023-04-03T05:01:09;0.70;99.90
27376;DHT22;14844;51.302;6.354;2023-04-03T05:03:35;0.70;99.90
27376;DHT22;14844;51.302;6.354;2023-04-03T05:06:01;0.70;99.90
27376;DHT22;14844;51.302;6.354;2023-04-03T05:08:27;0.70;99.90
27376;DHT22;14844;51.302;6.354;2023-04-03T05:10:52;0.70;99.90
27376;DHT22;14844;51.302;6.354;2023-04-03T05:13:19;0.80;99.90
27376;DHT22;14844;51.302;6.354;2023-04-03T05:15:44;0.80;99.90
27376;DHT22;14844;51.302;6.354;2023-04-03T05:18:10;0.70;99.90
27376;DHT22;14844;51.302;6.354;2023-04-03T05:20:35;0.80;99.90
27376;DHT22;14844;51.302;6.354;2023-04-03T05:23:02;0.80;99.90
27376;DHT22;14844;51.302;6.354;2023-04-03T05:25:27;0.80;99.90
27376;DHT22;14844;51.302;6.354;2023-04-03T05:27:53;0.90;99.90
27376;DHT22;14844;51.302;6.354;2023-04-03T05:30:18;1.00;99.90
27376;DHT22;14844;51.302;6.354;2023-04-03T05:32:44;0.90;99.90
27376;DHT22;14844;51.302;6.354;2023-04-03T05:35:10;0.90;99.90
27376;DHT22;14844;51.302;6.354;2023-04-03T05:37:36;1.00;99.90
27376;DHT22;14844;51.302;6.354;2023-04-03T05:40:02;1.10;99.90
27376;DHT22;14844;51.302;6.354;2023-04-03T05:42:28;1.20;99.90
27376;DHT22;14844;51.302;6.354;2023-04-03T05:44:53;1.30;99.90
27376;DHT22;14844;51.302;6.354;2023-04-03T05:47:19;1.40;99.90
27376;DHT22;14844;51.302;6.354;2023-04-03T05:49:44;1.40;99.90
27376;DHT22;14844;51.302;6.354;2023-04-03T05:52:18;1.50;99.90
27376;DHT22;14844;51.302;6.354;2023-04-03T05:54:45;1.50;99.90
27376;DHT22;14844;51.302;6.354;2023-04-03T05:57:13;1.60;99.90
27376;DHT22;14844;51.302;6.354;2023-04-03T05:59:39;1.60;99.90
27376;DHT22;14844;51.302;6.354;2023-04-03T06:02:05;1.70;99.90
27376;DHT22;14844;51.302;6.354;2023-04-03T06:04:30;1.70;99.90
27376;DHT22;14844;51.302;6.354;2023-04-03T06:06:56;1.80;99.90
27376;DHT22;14844;51.302;6.354;2023-04-03T06:09:23;1.90;99.90
27376;DHT22;14844;51.302;6.354;2023-04-03T06:11:49;2.00;99.90
27376;DHT22;14844;51.302;6.354;2023-04-03T06:14:15;2.10;99.90
27376;DHT22;14844;51.302;6.354;2023-04-03T06:16:40;2.20;99.90
27376;DHT22;14844;51.302;6.354;2023-04-03T06:19:07;2.30;99.90
27376;DHT22;14844;51.302;6.354;2023-04-03T06:21:33;2.30;99.90
27376;DHT22;14844;51.302;6.354;2023-04-03T06:23:58;2.50;99.90
27376;DHT22;14844;51.302;6.354;2023-04-03T06:26:24;2.60;99.90
27376;DHT22;14844;51.302;6.354;2023-04-03T06:28:50;2.60;99.90
27376;DHT22;14844;51.302;6.354;2023-04-03T06:31:15;2.70;99.90
27376;DHT22;14844;51.302;6.354;2023-04-03T06:33:42;2.80;99.90
27376;DHT22;14844;51.302;6.354;2023-04-03T06:36:07;2.90;99.90
27376;DHT22;14844;51.302;6.354;2023-04-03T06:38:35;3.00;99.90
27376;DHT22;14844;51.302;6.354;2023-04-03T06:41:00;3.10;99.90
27376;DHT22;14844;51.302;6.354;2023-04-03T06:43:26;3.20;99.90
27376;DHT22;14844;51.302;6.354;2023-04-03T06:45:51;3.20;99.90
27376;DHT22;14844;51.302;6.354;2023-04-03T06:48:17;3.30;99.90
27376;DHT22;14844;51.302;6.354;2023-04-03T06:50:42;3.40;99.90
27376;DHT22;14844;51.302;6.354;2023-04-03T06:53:08;3.60;99.90
27376;DHT22;14844;51.302;6.354;2023-04-03T06:55:34;3.70;99.90
27376;DHT22;14844;51.302;6.354;2023-04-03T06:57:59;3.80;99.90
27376;DHT22;14844;51.302;6.354;2023-04-03T07:00:25;3.80;99.90
27376;DHT22;14844;51.302;6.354;2023-04-03T07:02:51;3.90;99.90
27376;DHT22;14844;51.302;6.354;2023-04-03T07:05:17;4.00;99.90
27376;DHT22;14844;51.302;6.354;2023-04-03T07:07:42;4.20;99.90
27376;DHT22;14844;51.302;6.354;2023-04-03T07:10:08;4.20;99.90
27376;DHT22;14844;51.302;6.354;2023-04-03T07:12:35;4.20;99.90
27376;DHT22;14844;51.302;6.354;2023-04-03T07:15:00;4.30;99.90
27376;DHT22;14844;51.302;6.354;2023-04-03T07:17:26;4.40;99.90
27376;DHT22;14844;51.302;6.354;2023-04-03T07:19:52;4.40;99.90
27376;DHT22;14844;51.302;6.354;2023-04-03T07:22:18;4.40;99.90
27376;DHT22;14844;51.302;6.354;2023-04-03T07:24:44;4.50;99.90
27376;DHT22;14844;51.302;6.354;2023-04-03T07:27:09;4.60;99.90
27376;DHT22;14844;51.302;6.354;2023-04-03T07:29:35;4.60;99.90
27376;DHT22;14844;51.302;6.354;2023-04-03T07:32:01;4.60;99.90
27376;DHT22;14844;51.302;6.354;2023-04-03T07:34:27;4.60;99.90
27376;DHT22;14844;51.302;6.354;2023-04-03T07:36:52;4.80;99.90
27376;DHT22;14844;51.302;6.354;2023-04-03T07:39:18;5.00;99.90
27376;DHT22;14844;51.302;6.354;2023-04-03T07:41:44;5.10;99.90
27376;DHT22;14844;51.302;6.354;2023-04-03T07:44:09;5.10;99.90
27376;DHT22;14844;51.302;6.354;2023-04-03T07:46:36;5.20;99.90
27376;DHT22;14844;51.302;6.354;2023-04-03T07:49:01;5.30;99.90
27376;DHT22;14844;51.302;6.354;2023-04-03T07:51:27;5.40;99.90
27376;DHT22;14844;51.302;6.354;2023-04-03T07:53:53;5.40;99.90
27376;DHT22;14844;51.302;6.354;2023-04-03T07:56:19;5.30;99.90
27376;DHT22;14844;51.302;6.354;2023-04-03T07:58:45;5.50;99.90
27376;DHT22;14844;51.302;6.354;2023-04-03T08:01:11;5.50;99.90
27376;DHT22;14844;51.302;6.354;2023-04-03T08:03:37;5.70;99.90
27376;DHT22;14844;51.302;6.354;2023-04-03T08:06:03;5.80;99.90
27376;DHT22;14844;51.302;6.354;2023-04-03T08:08:29;5.80;99.90
27376;DHT22;14844;51.302;6.354;2023-04-03T08:10:55;6.00;99.90
27376;DHT22;14844;51.302;6.354;2023-04-03T08:13:22;6.00;99.90
27376;DHT22;14844;51.302;6.354;2023-04-03T08:15:48;6.10;99.90
27376;DHT22;14844;51.302;6.354;2023-04-03T08:18:14;6.30;99.90
27376;DHT22;14844;51.302;6.354;2023-04-03T08:20:40;6.30;99.90
27376;DHT22;14844;51.302;6.354;2023-04-03T08:23:06;6.40;99.90
27376;DHT22;14844;51.302;6.354;2023-04-03T08:25:32;6.50;99.90
27376;DHT22;14844;51.302;6.354;2023-04-03T08:27:57;6.50;99.90
27376;DHT22;14844;51.302;6.354;2023-04-03T08:30:23;6.60;99.90
27376;DHT22;14844;51.302;6.354;2023-04-03T08:32:48;6.60;99.90
27376;DHT22;14844;51.302;6.354;2023-04-03T08:35:14;6.60;99.90
27376;DHT22;14844;51.302;6.354;2023-04-03T08:37:40;6.70;99.90
27376;DHT22;14844;51.302;6.354;2023-04-03T08:40:06;6.80;99.90
27376;DHT22;14844;51.302;6.354;2023-04-03T08:42:48;6.80;99.90
27376;DHT22;14844;51.302;6.354;2023-04-03T08:45:17;6.90;99.90
27376;DHT22;14844;51.302;6.354;2023-04-03T08:47:49;7.00;99.90
27376;DHT22;14844;51.302;6.354;2023-04-03T08:50:20;7.00;99.90
27376;DHT22;14844;51.302;6.354;2023-04-03T08:52:47;7.10;99.90
27376;DHT22;14844;51.302;6.354;2023-04-03T08:58:00;7.30;99.90
27376;DHT22;14844;51.302;6.354;2023-04-03T09:00:27;7.20;99.90
27376;DHT22;14844;51.302;6.354;2023-04-03T09:02:55;7.30;99.90
27376;DHT22;14844;51.302;6.354;2023-04-03T09:05:29;7.30;99.90
27376;DHT22;14844;51.302;6.354;2023-04-03T09:08:03;7.30;99.90
27376;DHT22;14844;51.302;6.354;2023-04-03T09:10:30;7.20;99.90
27376;DHT22;14844;51.302;6.354;2023-04-03T09:13:09;7.30;98.60
27376;DHT22;14844;51.302;6.354;2023-04-03T09:15:36;7.40;99.80
27376;DHT22;14844;51.302;6.354;2023-04-03T09:20:43;7.50;98.60
27376;DHT22;14844;51.302;6.354;2023-04-03T09:23:24;7.60;97.70
27376;DHT22;14844;51.302;6.354;2023-04-03T09:25:53;7.70;97.50
27376;DHT22;14844;51.302;6.354;2023-04-03T09:28:21;7.80;98.00
27376;DHT22;14844;51.302;6.354;2023-04-03T09:30:47;7.90;95.70
27376;DHT22;14844;51.302;6.354;2023-04-03T09:33:12;7.90;95.50
27376;DHT22;14844;51.302;6.354;2023-04-03T09:35:39;8.00;95.80
27376;DHT22;14844;51.302;6.354;2023-04-03T09:40:36;8.10;94.50
27376;DHT22;14844;51.302;6.354;2023-04-03T09:45:41;8.10;94.00
27376;DHT22;14844;51.302;6.354;2023-04-03T09:48:09;8.00;92.80
27376;DHT22;14844;51.302;6.354;2023-04-03T09:50:52;8.10;93.50
27376;DHT22;14844;51.302;6.354;2023-04-03T09:53:28;7.90;92.40
27376;DHT22;14844;51.302;6.354;2023-04-03T09:55:54;8.10;92.60
27376;DHT22;14844;51.302;6.354;2023-04-03T09:58:27;8.20;93.00
27376;DHT22;14844;51.302;6.354;2023-04-03T10:00:58;8.30;91.90
27376;DHT22;14844;51.302;6.354;2023-04-03T10:03:28;8.20;91.20
27376;DHT22;14844;51.302;6.354;2023-04-03T10:05:54;8.10;90.60
27376;DHT22;14844;51.302;6.354;2023-04-03T10:08:22;8.10;91.10
27376;DHT22;14844;51.302;6.354;2023-04-03T10:11:05;8.10;91.00
27376;DHT22;14844;51.302;6.354;2023-04-03T10:13:31;8.30;90.10
27376;DHT22;14844;51.302;6.354;2023-04-03T10:18:31;8.50;90.60
27376;DHT22;14844;51.302;6.354;2023-04-03T10:21:32;8.60;90.50
27376;DHT22;14844;51.302;6.354;2023-04-03T10:26:39;8.40;88.90
27376;DHT22;14844;51.302;6.354;2023-04-03T10:29:18;8.40;90.40
27376;DHT22;14844;51.302;6.354;2023-04-03T10:31:53;8.60;88.70
27376;DHT22;14844;51.302;6.354;2023-04-03T10:34:31;8.70;89.10
27376;DHT22;14844;51.302;6.354;2023-04-03T10:37:08;8.90;88.70
27376;DHT22;14844;51.302;6.354;2023-04-03T10:44:52;9.00;87.60
27376;DHT22;14844;51.302;6.354;2023-04-03T10:47:24;9.00;85.60
27376;DHT22;14844;51.302;6.354;2023-04-03T10:55:35;9.00;81.80
27376;DHT22;14844;51.302;6.354;2023-04-03T10:58:01;9.00;83.00
27376;DHT22;14844;51.302;6.354;2023-04-03T11:00:33;9.10;83.00
27376;DHT22;14844;51.302;6.354;2023-04-03T11:03:05;8.90;82.40
27376;DHT22;14844;51.302;6.354;2023-04-03T11:05:33;9.00;83.40
27376;DHT22;14844;51.302;6.354;2023-04-03T11:08:02;9.20;85.20
27376;DHT22;14844;51.302;6.354;2023-04-03T11:13:02;9.40;85.40
27376;DHT22;14844;51.302;6.354;2023-04-03T11:15:32;9.40;85.30
27376;DHT22;14844;51.302;6.354;2023-04-03T11:18:13;9.40;86.10
27376;DHT22;14844;51.302;6.354;2023-04-03T11:20:41;9.40;86.80
27376;DHT22;14844;51.302;6.354;2023-04-03T11:23:13;9.50;86.20
27376;DHT22;14844;51.302;6.354;2023-04-03T11:25:42;9.50;85.50
27376;DHT22;14844;51.302;6.354;2023-04-03T11:28:12;9.30;84.90
27376;DHT22;14844;51.302;6.354;2023-04-03T11:30:40;9.30;85.30
27376;DHT22;14844;51.302;6.354;2023-04-03T11:35:53;9.60;88.80
27376;DHT22;14844;51.302;6.354;2023-04-03T11:38:21;9.60;89.00
27376;DHT22;14844;51.302;6.354;2023-04-03T11:40:48;9.60;87.70
27376;DHT22;14844;51.302;6.354;2023-04-03T11:43:21;9.40;86.90
27376;DHT22;14844;51.302;6.354;2023-04-03T11:45:52;9.40;88.30
27376;DHT22;14844;51.302;6.354;2023-04-03T11:50:58;9.70;89.70
27376;DHT22;14844;51.302;6.354;2023-04-03T11:53:35;9.60;87.80
27376;DHT22;14844;51.302;6.354;2023-04-03T11:58:33;9.80;88.00
27376;DHT22;14844;51.302;6.354;2023-04-03T12:01:00;9.60;89.10
27376;DHT22;14844;51.302;6.354;2023-04-03T12:08:45;9.70;87.50
27376;DHT22;14844;51.302;6.354;2023-04-03T12:21:17;9.90;88.50
27376;DHT22;14844;51.302;6.354;2023-04-03T12:26:22;10.00;89.30
27376;DHT22;14844;51.302;6.354;2023-04-03T12:29:39;9.80;87.00
27376;DHT22;14844;51.302;6.354;2023-04-03T12:32:48;9.80;84.80
27376;DHT22;14844;51.302;6.354;2023-04-03T12:35:21;9.80;87.70
27376;DHT22;14844;51.302;6.354;2023-04-03T12:46:03;9.70;87.20
27376;DHT22;14844;51.302;6.354;2023-04-03T12:48:30;9.80;90.30
27376;DHT22;14844;51.302;6.354;2023-04-03T12:50:56;9.70;89.40
27376;DHT22;14844;51.302;6.354;2023-04-03T12:53:23;9.60;90.40
27376;DHT22;14844;51.302;6.354;2023-04-03T12:55:54;9.50;90.10
27376;DHT22;14844;51.302;6.354;2023-04-03T12:58:23;9.60;84.40
27376;DHT22;14844;51.302;6.354;2023-04-03T13:00:59;9.80;87.90
27376;DHT22;14844;51.302;6.354;2023-04-03T13:03:26;9.80;89.60
27376;DHT22;14844;51.302;6.354;2023-04-03T13:05:54;9.90;90.80
27376;DHT22;14844;51.302;6.354;2023-04-03T13:08:19;9.70;90.00
27376;DHT22;14844;51.302;6.354;2023-04-03T13:10:48;9.70;87.70
27376;DHT22;14844;51.302;6.354;2023-04-03T13:13:14;9.70;88.20
27376;DHT22;14844;51.302;6.354;2023-04-03T13:15:42;9.70;88.00
27376;DHT22;14844;51.302;6.354;2023-04-03T13:18:21;9.80;89.20
27376;DHT22;14844;51.302;6.354;2023-04-03T13:20:48;9.70;86.10
27376;DHT22;14844;51.302;6.354;2023-04-03T13:23:14;9.70;87.00
27376;DHT22;14844;51.302;6.354;2023-04-03T13:25:43;9.70;87.10
27376;DHT22;14844;51.302;6.354;2023-04-03T13:28:13;9.80;88.30
27376;DHT22;14844;51.302;6.354;2023-04-03T13:30:40;9.80;88.90
27376;DHT22;14844;51.302;6.354;2023-04-03T13:33:19;9.90;88.20
27376;DHT22;14844;51.302;6.354;2023-04-03T13:35:45;9.90;88.10
27376;DHT22;14844;51.302;6.354;2023-04-03T13:40:58;9.80;86.70
27376;DHT22;14844;51.302;6.354;2023-04-03T13:43:28;9.70;85.90
27376;DHT22;14844;51.302;6.354;2023-04-03T13:45:57;9.60;85.50
27376;DHT22;14844;51.302;6.354;2023-04-03T13:48:23;9.60;88.40
27376;DHT22;14844;51.302;6.354;2023-04-03T13:50:59;9.70;85.30
27376;DHT22;14844;51.302;6.354;2023-04-03T13:53:26;9.50;84.30
27376;DHT22;14844;51.302;6.354;2023-04-03T13:58:23;9.50;86.00
27376;DHT22;14844;51.302;6.354;2023-04-03T14:00:50;9.50;85.50
27376;DHT22;14844;51.302;6.354;2023-04-03T14:05:41;9.80;88.40
27376;DHT22;14844;51.302;6.354;2023-04-03T14:08:07;9.80;87.10
27376;DHT22;14844;51.302;6.354;2023-04-03T14:10:32;9.70;87.00
27376;DHT22;14844;51.302;6.354;2023-04-03T14:12:58;9.60;87.90
27376;DHT22;14844;51.302;6.354;2023-04-03T14:15:25;9.60;87.80
27376;DHT22;14844;51.302;6.354;2023-04-03T14:17:51;9.60;87.20
27376;DHT22;14844;51.302;6.354;2023-04-03T14:20:19;9.60;88.10
27376;DHT22;14844;51.302;6.354;2023-04-03T14:22:45;9.60;89.70
27376;DHT22;14844;51.302;6.354;2023-04-03T14:25:10;9.70;86.30
27376;DHT22;14844;51.302;6.354;2023-04-03T14:27:38;9.60;84.50
27376;DHT22;14844;51.302;6.354;2023-04-03T14:30:05;9.60;86.20
27376;DHT22;14844;51.302;6.354;2023-04-03T14:32:31;9.70;84.90
27376;DHT22;14844;51.302;6.354;2023-04-03T14:34:56;9.70;88.20
27376;DHT22;14844;51.302;6.354;2023-04-03T14:37:27;9.70;88.80
27376;DHT22;14844;51.302;6.354;2023-04-03T14:39:55;9.70;86.60
27376;DHT22;14844;51.302;6.354;2023-04-03T14:42:31;9.70;87.10
27376;DHT22;14844;51.302;6.354;2023-04-03T14:44:57;9.60;85.90
27376;DHT22;14844;51.302;6.354;2023-04-03T14:47:24;9.50;85.20
27376;DHT22;14844;51.302;6.354;2023-04-03T14:49:51;9.40;85.50
27376;DHT22;14844;51.302;6.354;2023-04-03T14:52:21;9.30;86.00
27376;DHT22;14844;51.302;6.354;2023-04-03T14:54:48;9.30;87.10
27376;DHT22;14844;51.302;6.354;2023-04-03T14:57:14;9.30;86.40
27376;DHT22;14844;51.302;6.354;2023-04-03T14:59:40;9.30;86.90
27376;DHT22;14844;51.302;6.354;2023-04-03T15:02:22;9.30;87.40
27376;DHT22;14844;51.302;6.354;2023-04-03T15:04:49;9.40;88.90
27376;DHT22;14844;51.302;6.354;2023-04-03T15:07:14;9.50;87.60
27376;DHT22;14844;51.302;6.354;2023-04-03T15:09:40;9.40;86.40
27376;DHT22;14844;51.302;6.354;2023-04-03T15:12:07;9.50;87.80
27376;DHT22;14844;51.302;6.354;2023-04-03T15:14:33;9.70;85.60
27376;DHT22;14844;51.302;6.354;2023-04-03T15:16:58;10.00;85.10
27376;DHT22;14844;51.302;6.354;2023-04-03T15:19:24;10.20;85.20
27376;DHT22;14844;51.302;6.354;2023-04-03T15:21:49;10.60;84.20
27376;DHT22;14844;51.302;6.354;2023-04-03T15:24:15;10.90;84.10
27376;DHT22;14844;51.302;6.354;2023-04-03T15:26:40;11.10;84.10
27376;DHT22;14844;51.302;6.354;2023-04-03T15:29:08;11.40;83.50
27376;DHT22;14844;51.302;6.354;2023-04-03T15:31:34;11.50;83.90
27376;DHT22;14844;51.302;6.354;2023-04-03T15:33:59;11.90;82.00
27376;DHT22;14844;51.302;6.354;2023-04-03T15:36:25;12.00;80.30
27376;DHT22;14844;51.302;6.354;2023-04-03T15:38:50;12.20;81.50
27376;DHT22;14844;51.302;6.354;2023-04-03T15:41:16;12.40;81.30
27376;DHT22;14844;51.302;6.354;2023-04-03T15:43:42;12.70;81.50
27376;DHT22;14844;51.302;6.354;2023-04-03T15:46:07;13.10;80.10
27376;DHT22;14844;51.302;6.354;2023-04-03T15:48:33;13.20;78.70
27376;DHT22;14844;51.302;6.354;2023-04-03T15:50:59;13.10;77.90
27376;DHT22;14844;51.302;6.354;2023-04-03T15:53:25;13.40;78.30
27376;DHT22;14844;51.302;6.354;2023-04-03T15:55:50;13.50;76.80
27376;DHT22;14844;51.302;6.354;2023-04-03T15:58:16;12.90;76.50
27376;DHT22;14844;51.302;6.354;2023-04-03T16:00:41;12.80;79.20
27376;DHT22;14844;51.302;6.354;2023-04-03T16:03:11;12.90;78.50
27376;DHT22;14844;51.302;6.354;2023-04-03T16:05:37;13.20;77.30
27376;DHT22;14844;51.302;6.354;2023-04-03T16:08:03;13.60;78.20
27376;DHT22;14844;51.302;6.354;2023-04-03T16:10:29;13.90;76.80
27376;DHT22;14844;51.302;6.354;2023-04-03T16:12:54;13.80;76.50
27376;DHT22;14844;51.302;6.354;2023-04-03T16:15:20;13.50;76.70
27376;DHT22;14844;51.302;6.354;2023-04-03T16:17:45;13.50;77.60
27376;DHT22;14844;51.302;6.354;2023-04-03T16:20:13;13.60;77.80
27376;DHT22;14844;51.302;6.354;2023-04-03T16:22:39;13.60;75.50
27376;DHT22;14844;51.302;6.354;2023-04-03T16:25:05;13.50;76.00
27376;DHT22;14844;51.302;6.354;2023-04-03T16:27:31;13.20;76.40
27376;DHT22;14844;51.302;6.354;2023-04-03T16:29:57;13.20;75.50
27376;DHT22;14844;51.302;6.354;2023-04-03T16:32:23;13.10;75.70
27376;DHT22;14844;51.302;6.354;2023-04-03T16:34:51;13.40;75.80
27376;DHT22;14844;51.302;6.354;2023-04-03T16:37:16;13.60;76.10
27376;DHT22;14844;51.302;6.354;2023-04-03T16:39:42;13.60;73.60
27376;DHT22;14844;51.302;6.354;2023-04-03T16:42:07;13.60;73.80
27376;DHT22;14844;51.302;6.354;2023-04-03T16:44:34;13.00;75.50
27376;DHT22;14844;51.302;6.354;2023-04-03T16:46:59;13.10;75.90
27376;DHT22;14844;51.302;6.354;2023-04-03T16:49:25;12.90;75.90
27376;DHT22;14844;51.302;6.354;2023-04-03T16:51:53;13.00;76.00
27376;DHT22;14844;51.302;6.354;2023-04-03T16:54:18;12.80;76.30
27376;DHT22;14844;51.302;6.354;2023-04-03T16:56:44;12.80;76.40
27376;DHT22;14844;51.302;6.354;2023-04-03T16:59:09;12.80;76.00
27376;DHT22;14844;51.302;6.354;2023-04-03T17:01:35;13.20;75.70
27376;DHT22;14844;51.302;6.354;2023-04-03T17:04:00;13.00;74.40
27376;DHT22;14844;51.302;6.354;2023-04-03T17:06:26;13.00;74.80